createdAt,value
2019-06-20T00:34:03.273Z,58.60
2019-06-20T00:36:34.554Z,78.20
2019-06-20T00:39:22.521Z,74.70
2019-06-20T00:42:03.517Z,76.70
2019-06-20T10:30:33.233Z,99.90
2019-06-20T10:33:50.915Z,99.90
2019-06-20T10:36:20.208Z,99.90
2019-06-20T10:38:50.349Z,99.90
2019-06-20T10:41:19.836Z,99.90
2019-06-20T10:43:49.572Z,99.90
2019-06-20T10:46:29.184Z,99.90
2019-06-20T10:48:58.471Z,98.60
2019-06-20T10:51:47.587Z,97.70
2019-06-20T10:54:16.926Z,97.10
2019-06-20T10:56:47.202Z,96.20
2019-06-20T10:59:16.584Z,96.40
2019-06-20T11:01:46.619Z,97.00
2019-06-20T11:04:16.249Z,97.60
2019-06-20T11:06:45.749Z,98.50
2019-06-20T11:09:14.891Z,99.30
2019-06-20T11:11:44.779Z,99.50
2019-06-20T11:14:14.421Z,99.50
2019-06-20T11:16:45.125Z,98.50
2019-06-20T11:19:14.527Z,97.40
2019-06-20T11:21:53.135Z,95.80
2019-06-20T11:24:22.683Z,95.40
2019-06-20T11:26:52.437Z,94.30
2019-06-20T11:29:22.106Z,93.90
2019-06-20T11:31:51.747Z,93.50
2019-06-20T11:34:20.894Z,92.10
2019-06-20T11:36:52.018Z,92.40
2019-06-20T11:39:21.791Z,92.10
2019-06-20T11:41:51.249Z,92.10
2019-06-20T11:44:21.668Z,91.50
2019-06-20T11:46:51.298Z,91.30
2019-06-20T11:49:28.610Z,90.90
2019-06-20T11:51:58.084Z,90.80
2019-06-20T11:54:27.531Z,90.00
2019-06-20T11:56:57.028Z,87.70
2019-06-20T11:59:26.962Z,88.20
2019-06-20T12:01:56.475Z,87.30
2019-06-20T12:04:26.089Z,88.00
2019-06-20T12:06:55.368Z,88.50
2019-06-20T12:10:31.790Z,90.00
2019-06-20T12:12:41.382Z,90.80
2019-06-20T12:15:15.018Z,91.00
2019-06-20T12:17:45.350Z,90.80
2019-06-20T12:20:19.991Z,91.20
2019-06-20T12:22:51.497Z,91.30
2019-06-20T12:25:21.684Z,90.30
2019-06-20T12:27:52.856Z,88.70
2019-06-20T12:30:34.185Z,86.40
2019-06-20T12:33:13.930Z,85.70
2019-06-20T12:36:07.995Z,82.80
2019-06-20T12:38:48.383Z,83.70
2019-06-20T12:41:29.970Z,80.00
2019-06-20T12:44:02.860Z,78.00
2019-06-20T12:46:40.718Z,73.80
2019-06-20T12:49:15.180Z,74.00
2019-06-20T12:51:54.387Z,74.70
2019-06-20T12:54:30.149Z,75.40
2019-06-20T12:57:01.987Z,76.00
2019-06-20T12:59:48.393Z,75.90
2019-06-20T13:02:20.801Z,75.90
2019-06-20T13:04:55.715Z,74.60
2019-06-20T13:07:28.334Z,73.50
2019-06-20T13:10:33.839Z,71.30
2019-06-20T13:13:07.856Z,71.20
2019-06-20T13:15:53.752Z,69.70
2019-06-20T13:18:39.680Z,70.90
2019-06-20T13:21:27.597Z,73.50
2019-06-20T13:24:02.794Z,73.20
2019-06-20T13:26:48.912Z,73.70
2019-06-20T13:29:47.256Z,75.20
2019-06-20T13:32:24.447Z,77.60
2019-06-20T15:17:01.595Z,78.10
2019-06-20T15:19:32.326Z,92.80
2019-06-20T15:22:09.439Z,92.20
2019-06-20T15:24:51.727Z,91.60
2019-06-20T15:27:21.417Z,92.50
2019-06-20T15:29:58.367Z,92.60
2019-06-20T15:32:28.169Z,92.20
2019-06-20T15:34:57.837Z,91.50
2019-06-20T15:37:44.349Z,90.90
2019-06-20T15:40:20.557Z,90.30
2019-06-20T15:42:56.984Z,90.60
2019-06-20T15:45:32.362Z,90.60
2019-06-20T15:48:07.327Z,90.70
2019-06-20T15:50:50.014Z,90.90
2019-06-20T15:57:56.681Z,90.40
2019-06-20T22:14:55.752Z,90.50
2019-06-20T22:17:25.435Z,99.90
2019-06-20T22:19:54.826Z,99.90
2019-06-20T22:22:24.063Z,99.90
